createdAt,value
2022-12-17T00:00:37.649Z,89.78
2022-12-17T00:01:37.542Z,89.73
2022-12-17T00:02:37.747Z,89.45
2022-12-17T00:03:38.077Z,89.73
2022-12-17T00:04:37.524Z,89.69
2022-12-17T00:05:37.516Z,89.73
2022-12-17T00:06:37.498Z,89.78
2022-12-17T00:07:37.492Z,89.78
2022-12-17T00:08:37.518Z,89.78
2022-12-17T00:09:37.465Z,89.83
2022-12-17T00:10:37.463Z,89.73
2022-12-17T00:11:37.446Z,90.16
2022-12-17T00:12:37.466Z,89.73
2022-12-17T00:13:38.204Z,89.73
2022-12-17T00:14:37.408Z,90.11
2022-12-17T00:15:37.393Z,90.06
2022-12-17T00:16:37.581Z,89.64
2022-12-17T00:17:37.388Z,89.54
2022-12-17T00:18:37.371Z,89.64
2022-12-17T00:19:37.363Z,89.78
2022-12-17T00:20:37.357Z,89.78
2022-12-17T00:21:37.337Z,89.78
2022-12-17T00:22:37.324Z,89.69
2022-12-17T00:23:37.629Z,89.87
2022-12-17T00:24:37.346Z,89.54
2022-12-17T00:25:37.296Z,89.83
2022-12-17T00:26:39.158Z,89.54
2022-12-17T00:27:37.274Z,89.87
2022-12-17T00:28:37.264Z,89.59
2022-12-17T00:29:37.249Z,89.54
2022-12-17T00:30:37.231Z,89.73
2022-12-17T00:31:37.303Z,89.87
2022-12-17T00:32:37.206Z,90.25
2022-12-17T00:33:37.667Z,89.69
2022-12-17T00:34:37.187Z,89.59
2022-12-17T00:35:37.181Z,89.54
2022-12-17T00:36:37.166Z,89.78
2022-12-17T00:37:37.157Z,89.69
2022-12-17T00:38:37.178Z,89.97
2022-12-17T00:39:37.142Z,89.87
2022-12-17T00:40:37.128Z,89.69
2022-12-17T00:41:37.133Z,89.87
2022-12-17T00:42:37.101Z,89.87
2022-12-17T00:43:37.362Z,89.73
2022-12-17T00:44:37.079Z,89.97
2022-12-17T00:45:37.082Z,89.59
2022-12-17T00:46:37.131Z,89.54
2022-12-17T00:47:37.054Z,89.59
2022-12-17T00:48:37.531Z,89.83
2022-12-17T00:49:37.028Z,89.78
2022-12-17T00:50:37.018Z,90.16
2022-12-17T00:51:37.008Z,90.25
2022-12-17T00:52:37.004Z,90.01
2022-12-17T00:53:37.411Z,90.25
2022-12-17T00:54:36.975Z,90.30
2022-12-17T00:55:36.964Z,90.11
2022-12-17T00:56:36.978Z,90.06
2022-12-17T00:57:36.943Z,90.34
2022-12-17T00:58:36.931Z,90.39
2022-12-17T00:59:36.915Z,90.44
2022-12-17T01:00:36.979Z,90.39
2022-12-17T01:01:37.072Z,90.16
2022-12-17T01:02:37.070Z,90.01
2022-12-17T01:03:37.284Z,90.06
2022-12-17T01:04:36.911Z,90.39
2022-12-17T01:05:36.852Z,90.39
2022-12-17T01:06:36.842Z,90.25
2022-12-17T01:07:36.830Z,90.20
2022-12-17T01:08:36.815Z,90.39
2022-12-17T01:09:36.828Z,90.44
2022-12-17T01:10:36.804Z,90.53
2022-12-17T01:11:36.794Z,90.77
2022-12-17T01:12:36.781Z,91.10
2022-12-17T01:13:37.151Z,90.82
2022-12-17T01:14:36.767Z,90.72
2022-12-17T01:15:36.744Z,90.91
2022-12-17T01:16:36.805Z,90.91
2022-12-17T01:17:36.732Z,90.82
2022-12-17T01:18:36.710Z,90.82
2022-12-17T01:19:36.716Z,90.91
2022-12-17T01:20:36.699Z,90.63
2022-12-17T01:21:36.708Z,90.53
2022-12-17T01:22:36.671Z,90.82
2022-12-17T01:23:36.970Z,90.63
2022-12-17T01:24:36.648Z,91.01
2022-12-17T01:25:36.647Z,90.91
2022-12-17T01:26:36.629Z,90.72
2022-12-17T01:27:36.622Z,91.20
2022-12-17T01:28:36.602Z,90.91
2022-12-17T01:29:36.598Z,90.72
2022-12-17T01:30:36.596Z,90.72
2022-12-17T01:31:36.650Z,91.29
2022-12-17T01:32:36.566Z,91.29
2022-12-17T01:33:36.892Z,91.58
2022-12-17T01:34:36.574Z,91.58
2022-12-17T01:35:36.529Z,91.58
2022-12-17T01:36:36.510Z,91.58
2022-12-17T01:37:36.510Z,91.39
2022-12-17T01:38:36.504Z,91.39
2022-12-17T01:39:36.485Z,91.10
2022-12-17T01:40:36.485Z,91.39
2022-12-17T01:41:36.485Z,91.58
2022-12-17T01:42:36.473Z,91.58
2022-12-17T01:43:36.747Z,91.58
2022-12-17T01:44:36.441Z,91.39
2022-12-17T01:45:36.496Z,91.10
2022-12-17T01:46:36.403Z,91.20
2022-12-17T01:47:36.404Z,91.29
2022-12-17T01:48:36.387Z,91.29
2022-12-17T01:49:36.386Z,91.53
2022-12-17T01:50:36.386Z,90.86
2022-12-17T01:51:36.374Z,90.68
2022-12-17T01:52:36.349Z,90.86
2022-12-17T01:53:36.766Z,91.43
2022-12-17T01:54:36.326Z,91.81
2022-12-17T01:55:36.333Z,91.72
2022-12-17T01:56:36.347Z,91.62
2022-12-17T01:57:36.299Z,91.81
2022-12-17T01:58:36.278Z,92.10
2022-12-17T01:59:36.277Z,92.00
2022-12-17T02:00:36.350Z,92.00
2022-12-17T02:01:36.558Z,91.72
2022-12-17T02:02:36.312Z,92.10
2022-12-17T02:03:36.549Z,92.29
2022-12-17T02:04:36.210Z,92.57
2022-12-17T02:05:36.198Z,92.76
2022-12-17T02:06:36.198Z,92.66
2022-12-17T02:07:36.259Z,92.85
2022-12-17T02:08:36.176Z,92.76
2022-12-17T02:09:36.150Z,92.76
2022-12-17T02:10:36.161Z,92.76
2022-12-17T02:11:36.130Z,92.76
2022-12-17T02:12:36.128Z,92.47
2022-12-17T02:13:36.409Z,93.04
2022-12-17T02:14:36.095Z,92.85
2022-12-17T02:15:36.088Z,92.94
2022-12-17T02:16:36.117Z,92.85
2022-12-17T02:17:36.064Z,92.57
2022-12-17T02:18:36.060Z,92.94
2022-12-17T02:19:36.051Z,92.85
2022-12-17T02:20:36.030Z,92.94
2022-12-17T02:21:36.026Z,93.04
2022-12-17T02:22:36.011Z,93.04
2022-12-17T02:23:36.514Z,92.38
2022-12-17T02:24:35.991Z,92.76
2022-12-17T02:25:35.987Z,92.38
2022-12-17T02:26:35.969Z,92.29
2022-12-17T02:27:35.959Z,92.47
2022-12-17T02:28:35.952Z,92.76
2022-12-17T02:29:35.948Z,92.38
2022-12-17T02:30:35.955Z,93.13
2022-12-17T02:31:35.984Z,93.04
2022-12-17T02:32:35.902Z,92.85
2022-12-17T02:33:36.355Z,93.04
2022-12-17T02:34:35.893Z,93.04
2022-12-17T02:35:35.873Z,92.94
2022-12-17T02:36:35.865Z,92.76
2022-12-17T02:37:35.866Z,92.85
2022-12-17T02:38:35.841Z,92.94
2022-12-17T02:39:35.834Z,92.85
2022-12-17T02:40:35.808Z,93.04
2022-12-17T02:41:35.814Z,93.13
2022-12-17T02:42:35.805Z,93.23
2022-12-17T02:43:36.046Z,93.23
2022-12-17T02:44:35.774Z,92.29
2022-12-17T02:45:35.834Z,92.38
2022-12-17T02:46:35.753Z,92.38
2022-12-17T02:47:35.771Z,92.85
2022-12-17T02:48:35.742Z,92.85
2022-12-17T02:49:35.712Z,92.76
2022-12-17T02:50:35.722Z,92.94
2022-12-17T02:51:35.695Z,92.94
2022-12-17T02:52:35.701Z,92.85
2022-12-17T02:53:35.882Z,92.94
2022-12-17T02:54:35.668Z,92.85
2022-12-17T02:55:35.657Z,92.85
2022-12-17T02:56:35.632Z,93.13
2022-12-17T02:57:35.638Z,93.04
2022-12-17T02:58:35.620Z,93.13
2022-12-17T02:59:35.612Z,92.66
2022-12-17T03:00:35.592Z,92.57
2022-12-17T03:01:35.677Z,93.04
2022-12-17T03:02:35.709Z,93.23
2022-12-17T03:03:36.076Z,93.23
2022-12-17T03:04:35.560Z,93.04
2022-12-17T03:05:44.916Z,92.94
2022-12-17T03:06:35.529Z,93.23
2022-12-17T03:07:35.524Z,93.32
2022-12-17T03:08:35.541Z,92.76
2022-12-17T03:09:35.499Z,92.85
2022-12-17T03:10:35.489Z,92.76
2022-12-17T03:11:35.483Z,93.32
2022-12-17T03:12:35.463Z,92.85
2022-12-17T03:13:35.852Z,92.94
2022-12-17T03:14:35.437Z,93.04
2022-12-17T03:15:35.430Z,92.94
2022-12-17T03:16:37.703Z,92.57
2022-12-17T03:17:35.415Z,92.94
2022-12-17T03:18:35.404Z,92.94
2022-12-17T03:19:35.393Z,92.76
2022-12-17T03:20:35.382Z,92.94
2022-12-17T03:21:35.365Z,93.04
2022-12-17T03:22:35.361Z,92.85
2022-12-17T03:23:35.875Z,92.76
2022-12-17T03:24:35.335Z,92.85
2022-12-17T03:25:35.330Z,92.85
2022-12-17T03:26:35.309Z,92.85
2022-12-17T03:27:35.320Z,92.76
2022-12-17T03:28:35.291Z,92.57
2022-12-17T03:29:35.275Z,92.85
2022-12-17T03:30:36.535Z,92.85
2022-12-17T03:31:35.396Z,93.42
2022-12-17T03:32:35.257Z,93.13
2022-12-17T03:33:35.843Z,93.89
2022-12-17T03:34:35.221Z,93.80
2022-12-17T03:35:35.221Z,94.08
2022-12-17T03:36:35.207Z,93.89
2022-12-17T03:37:35.186Z,93.89
2022-12-17T03:38:35.186Z,93.89
2022-12-17T03:39:35.175Z,93.99
2022-12-17T03:40:35.157Z,93.80
2022-12-17T03:41:35.145Z,93.89
2022-12-17T03:42:35.132Z,93.89
2022-12-17T03:43:35.530Z,93.80
2022-12-17T03:44:35.119Z,93.61
2022-12-17T03:45:35.215Z,93.51
2022-12-17T03:46:35.169Z,93.61
2022-12-17T03:47:35.086Z,93.80
2022-12-17T03:48:35.064Z,93.89
2022-12-17T03:49:35.052Z,93.80
2022-12-17T03:50:35.048Z,94.08
2022-12-17T03:51:35.045Z,94.08
2022-12-17T03:52:35.032Z,93.23
2022-12-17T03:53:35.452Z,93.04
2022-12-17T03:54:35.015Z,92.85
2022-12-17T03:55:34.986Z,92.94
2022-12-17T03:56:34.987Z,92.76
2022-12-17T03:57:34.994Z,92.85
2022-12-17T03:58:34.951Z,92.47
2022-12-17T03:59:34.953Z,92.85
2022-12-17T04:00:34.923Z,92.85
2022-12-17T04:01:35.051Z,92.94
2022-12-17T04:02:35.100Z,92.57
2022-12-17T04:03:35.231Z,92.57
2022-12-17T04:04:34.887Z,92.94
2022-12-17T04:05:34.886Z,92.76
2022-12-17T04:06:34.882Z,93.89
2022-12-17T04:07:34.862Z,93.99
2022-12-17T04:08:34.846Z,93.80
2022-12-17T04:09:34.874Z,93.80
2022-12-17T04:10:34.843Z,93.70
2022-12-17T04:11:34.820Z,93.80
2022-12-17T04:12:34.809Z,93.80
2022-12-17T04:13:40.520Z,93.70
2022-12-17T04:14:34.777Z,94.08
2022-12-17T04:15:34.891Z,93.89
2022-12-17T04:16:34.759Z,94.08
2022-12-17T04:17:34.753Z,93.89
2022-12-17T04:18:34.731Z,93.80
2022-12-17T04:19:34.720Z,93.80
2022-12-17T04:20:34.720Z,93.80
2022-12-17T04:21:34.715Z,94.27
2022-12-17T04:22:34.687Z,94.08
2022-12-17T04:23:35.077Z,94.18
2022-12-17T04:24:34.677Z,93.89
2022-12-17T04:25:34.754Z,93.80
2022-12-17T04:26:34.646Z,93.80
2022-12-17T04:27:34.640Z,93.80
2022-12-17T04:28:34.636Z,93.61
2022-12-17T04:29:34.635Z,93.51
2022-12-17T04:30:34.611Z,93.80
2022-12-17T04:31:34.645Z,93.80
2022-12-17T04:32:35.592Z,93.70
2022-12-17T04:33:34.947Z,93.70
2022-12-17T04:34:34.552Z,93.70
2022-12-17T04:35:34.551Z,94.18
2022-12-17T04:36:34.547Z,94.08
2022-12-17T04:37:34.518Z,93.99
2022-12-17T04:38:34.517Z,94.08
2022-12-17T04:39:34.520Z,94.18
2022-12-17T04:40:34.490Z,93.99
2022-12-17T04:41:34.474Z,93.51
2022-12-17T04:42:34.482Z,93.70
2022-12-17T04:43:34.834Z,93.42
2022-12-17T04:44:34.447Z,93.70
2022-12-17T04:45:34.465Z,94.08
2022-12-17T04:46:34.470Z,93.89
2022-12-17T04:47:34.410Z,94.18
2022-12-17T04:48:34.405Z,94.18
2022-12-17T04:49:34.390Z,93.80
2022-12-17T04:50:34.395Z,93.80
2022-12-17T04:51:34.365Z,93.80
2022-12-17T04:52:34.361Z,93.80
2022-12-17T04:53:34.719Z,93.99
2022-12-17T04:54:34.344Z,93.80
2022-12-17T04:55:34.326Z,93.80
2022-12-17T04:56:34.334Z,94.08
2022-12-17T04:57:34.301Z,94.08
2022-12-17T04:58:34.286Z,93.89
2022-12-17T04:59:34.285Z,93.89
2022-12-17T05:00:34.281Z,93.89
2022-12-17T05:01:34.353Z,93.61
2022-12-17T05:02:37.144Z,93.61
2022-12-17T05:03:34.733Z,93.70
2022-12-17T05:04:34.231Z,93.70
2022-12-17T05:05:34.248Z,94.08
2022-12-17T05:06:34.223Z,93.89
2022-12-17T05:07:34.189Z,93.89
2022-12-17T05:08:39.637Z,93.70
2022-12-17T05:09:34.173Z,93.89
2022-12-17T05:10:34.177Z,93.42
2022-12-17T05:11:34.141Z,92.85
2022-12-17T05:12:34.141Z,93.32
2022-12-17T05:13:34.500Z,93.23
2022-12-17T05:14:34.135Z,92.76
2022-12-17T05:15:34.143Z,93.04
2022-12-17T05:16:34.156Z,92.85
2022-12-17T05:17:34.072Z,92.76
2022-12-17T05:18:34.069Z,93.42
2022-12-17T05:19:34.053Z,93.42
2022-12-17T05:20:34.043Z,92.76
2022-12-17T05:21:34.029Z,92.94
2022-12-17T05:22:34.033Z,92.85
2022-12-17T05:23:34.464Z,92.85
2022-12-17T05:24:34.023Z,92.85
2022-12-17T05:25:33.992Z,92.94
2022-12-17T05:26:33.978Z,93.32
2022-12-17T05:27:33.970Z,93.23
2022-12-17T05:28:34.006Z,93.23
2022-12-17T05:29:33.946Z,93.32
2022-12-17T05:30:33.933Z,92.85
2022-12-17T05:31:34.010Z,92.85
2022-12-17T05:32:33.921Z,92.85
2022-12-17T05:33:34.314Z,92.85
2022-12-17T05:34:33.899Z,92.57
2022-12-17T05:35:33.897Z,92.66
2022-12-17T05:36:33.880Z,93.13
2022-12-17T05:37:33.849Z,92.76
2022-12-17T05:38:33.848Z,93.04
2022-12-17T05:39:33.832Z,92.47
2022-12-17T05:40:33.821Z,92.57
2022-12-17T05:41:33.804Z,92.76
2022-12-17T05:42:33.805Z,92.66
2022-12-17T05:43:34.078Z,92.85
2022-12-17T05:44:33.799Z,92.47
2022-12-17T05:45:33.793Z,93.13
2022-12-17T05:46:33.923Z,93.13
2022-12-17T05:47:33.745Z,93.23
2022-12-17T05:48:33.735Z,93.04
2022-12-17T05:49:33.719Z,93.04
2022-12-17T05:50:33.728Z,92.85
2022-12-17T05:51:38.496Z,92.38
2022-12-17T05:52:33.698Z,92.76
2022-12-17T05:53:34.167Z,92.47
2022-12-17T05:54:33.672Z,92.57
2022-12-17T05:55:33.658Z,92.76
2022-12-17T05:56:33.667Z,92.76
2022-12-17T05:57:33.625Z,92.66
2022-12-17T05:58:33.642Z,92.57
2022-12-17T05:59:33.613Z,92.47
2022-12-17T06:00:33.608Z,92.76
2022-12-17T06:01:33.635Z,92.76
2022-12-17T06:02:33.684Z,92.57
2022-12-17T06:03:33.972Z,92.38
2022-12-17T06:04:33.566Z,92.76
2022-12-17T06:05:33.558Z,92.57
2022-12-17T06:06:33.539Z,92.85
2022-12-17T06:07:33.527Z,92.76
2022-12-17T06:08:33.525Z,92.10
2022-12-17T06:09:33.501Z,92.00
2022-12-17T06:10:33.481Z,91.81
2022-12-17T06:11:33.467Z,92.10
2022-12-17T06:12:33.467Z,91.91
2022-12-17T06:13:33.769Z,92.10
2022-12-17T06:14:33.460Z,92.38
2022-12-17T06:15:33.435Z,91.43
2022-12-17T06:16:33.543Z,91.72
2022-12-17T06:17:33.411Z,91.43
2022-12-17T06:18:33.415Z,91.05
2022-12-17T06:19:33.421Z,91.15
2022-12-17T06:20:33.395Z,91.05
2022-12-17T06:21:33.367Z,90.96
2022-12-17T06:22:33.363Z,91.24
2022-12-17T06:23:33.677Z,90.49
2022-12-17T06:24:33.336Z,90.96
2022-12-17T06:25:33.330Z,90.39
2022-12-17T06:26:33.317Z,90.58
2022-12-17T06:27:33.297Z,90.96
2022-12-17T06:28:33.286Z,90.39
2022-12-17T06:29:33.280Z,90.58
2022-12-17T06:30:33.279Z,90.86
2022-12-17T06:31:33.354Z,90.77
2022-12-17T06:32:33.277Z,91.24
2022-12-17T06:33:33.650Z,90.86
2022-12-17T06:34:33.220Z,90.86
2022-12-17T06:35:33.219Z,90.49
2022-12-17T06:36:33.215Z,90.58
2022-12-17T06:37:33.187Z,91.24
2022-12-17T06:38:33.194Z,91.24
2022-12-17T06:39:33.171Z,91.34
2022-12-17T06:40:33.161Z,90.86
2022-12-17T06:41:33.157Z,90.86
2022-12-17T06:42:33.143Z,91.05
2022-12-17T06:43:33.388Z,91.43
2022-12-17T06:44:33.105Z,91.81
2022-12-17T06:45:33.104Z,91.43
2022-12-17T06:46:33.153Z,91.34
2022-12-17T06:47:33.096Z,91.53
2022-12-17T06:48:33.069Z,91.81
2022-12-17T06:49:33.054Z,91.72
2022-12-17T06:50:33.045Z,90.86
2022-12-17T06:51:33.034Z,91.05
2022-12-17T06:52:33.026Z,91.05
2022-12-17T06:53:33.237Z,91.24
2022-12-17T06:54:33.013Z,91.53
2022-12-17T06:55:32.991Z,90.68
2022-12-17T06:56:32.990Z,90.86
2022-12-17T06:57:36.551Z,90.68
2022-12-17T06:58:32.959Z,90.96
2022-12-17T06:59:32.946Z,90.77
2022-12-17T07:00:32.980Z,90.86
2022-12-17T07:01:33.079Z,90.86
2022-12-17T07:02:33.094Z,91.05
2022-12-17T07:03:33.100Z,90.96
2022-12-17T07:04:32.907Z,91.15
2022-12-17T07:05:32.897Z,91.43
2022-12-17T07:06:32.869Z,91.34
2022-12-17T07:07:32.853Z,91.53
2022-12-17T07:08:32.859Z,90.77
2022-12-17T07:09:32.845Z,91.53
2022-12-17T07:10:32.846Z,91.05
2022-12-17T07:11:32.839Z,91.24
2022-12-17T07:12:32.813Z,90.77
2022-12-17T07:13:32.878Z,91.05
2022-12-17T07:14:32.786Z,91.05
2022-12-17T07:15:32.786Z,91.15
2022-12-17T07:16:32.824Z,91.05
2022-12-17T07:17:32.747Z,90.96
2022-12-17T07:18:32.738Z,91.53
2022-12-17T07:19:32.718Z,90.86
2022-12-17T07:20:32.713Z,90.68
2022-12-17T07:21:32.707Z,91.24
2022-12-17T07:22:32.711Z,90.96
2022-12-17T07:23:32.789Z,91.05
2022-12-17T07:24:32.677Z,91.43
2022-12-17T07:25:32.648Z,91.34
2022-12-17T07:26:32.641Z,91.05
2022-12-17T07:27:32.658Z,90.86
2022-12-17T07:28:32.619Z,91.05
2022-12-17T07:29:32.624Z,91.05
2022-12-17T07:30:32.603Z,90.58
2022-12-17T07:31:32.626Z,91.05
2022-12-17T07:32:32.571Z,90.68
2022-12-17T07:33:32.815Z,90.77
2022-12-17T07:34:32.641Z,90.77
2022-12-17T07:35:32.545Z,90.86
2022-12-17T07:36:32.650Z,90.58
2022-12-17T07:37:32.513Z,90.68
2022-12-17T07:38:32.514Z,90.96
2022-12-17T07:39:32.525Z,90.58
2022-12-17T07:40:32.498Z,90.20
2022-12-17T07:41:32.471Z,90.11
2022-12-17T07:42:32.487Z,89.92
2022-12-17T07:43:32.484Z,89.73
2022-12-17T07:44:32.483Z,89.83
2022-12-17T07:45:32.469Z,90.11
2022-12-17T07:46:32.422Z,90.11
2022-12-17T07:47:32.410Z,91.05
2022-12-17T07:48:32.411Z,90.86
2022-12-17T07:49:32.397Z,91.15
2022-12-17T07:50:32.395Z,90.68
2022-12-17T07:51:32.380Z,90.68
2022-12-17T07:52:32.439Z,90.68
2022-12-17T07:53:32.357Z,90.68
2022-12-17T07:54:32.343Z,90.68
2022-12-17T07:55:32.376Z,90.96
2022-12-17T07:56:32.322Z,90.86
2022-12-17T07:57:32.296Z,90.86
2022-12-17T07:58:32.285Z,90.77
2022-12-17T07:59:32.286Z,90.68
2022-12-17T08:00:32.285Z,90.68
2022-12-17T08:01:32.366Z,90.86
2022-12-17T08:02:32.452Z,90.86
2022-12-17T08:03:32.315Z,90.96
2022-12-17T08:04:32.224Z,90.86
2022-12-17T08:05:32.214Z,90.30
2022-12-17T08:06:32.195Z,90.96
2022-12-17T08:07:32.188Z,90.58
2022-12-17T08:08:32.189Z,90.86
2022-12-17T08:09:32.155Z,90.77
2022-12-17T08:10:32.158Z,90.96
2022-12-17T08:11:32.137Z,90.86
2022-12-17T08:12:32.134Z,91.53
2022-12-17T08:13:32.145Z,91.53
2022-12-17T08:14:32.127Z,90.86
2022-12-17T08:15:32.092Z,91.24
2022-12-17T08:16:32.206Z,91.24
2022-12-17T08:17:32.073Z,90.68
2022-12-17T08:18:32.070Z,91.24
2022-12-17T08:19:32.052Z,91.05
2022-12-17T08:20:32.039Z,91.05
2022-12-17T08:21:32.027Z,91.24
2022-12-17T08:22:32.015Z,91.24
2022-12-17T08:23:32.012Z,90.96
2022-12-17T08:24:31.998Z,90.86
2022-12-17T08:25:32.003Z,91.05
2022-12-17T08:26:31.973Z,91.53
2022-12-17T08:27:31.984Z,90.96
2022-12-17T08:28:50.064Z,90.86
2022-12-17T08:29:31.940Z,90.96
2022-12-17T08:30:31.987Z,90.68
2022-12-17T08:31:31.905Z,91.05
2022-12-17T08:32:31.902Z,90.86
2022-12-17T08:33:31.897Z,90.30
2022-12-17T08:34:31.884Z,90.30
2022-12-17T08:35:31.871Z,89.83
2022-12-17T08:36:31.861Z,90.01
2022-12-17T08:37:31.848Z,89.92
2022-12-17T08:38:31.830Z,90.01
2022-12-17T08:39:31.834Z,90.39
2022-12-17T08:40:31.860Z,90.58
2022-12-17T08:41:31.840Z,90.77
2022-12-17T08:42:31.791Z,90.58
2022-12-17T08:43:31.770Z,91.34
2022-12-17T08:44:31.813Z,91.24
2022-12-17T08:45:31.749Z,90.58
2022-12-17T08:46:31.792Z,91.53
2022-12-17T08:47:31.756Z,91.05
2022-12-17T08:48:31.735Z,91.34
2022-12-17T08:49:31.738Z,91.05
2022-12-17T08:50:31.706Z,90.58
2022-12-17T08:51:31.694Z,90.86
2022-12-17T08:52:31.701Z,90.86
2022-12-17T08:53:34.832Z,90.96
2022-12-17T08:54:31.659Z,90.58
2022-12-17T08:55:31.646Z,90.01
2022-12-17T08:56:31.624Z,90.20
2022-12-17T08:57:32.484Z,90.20
2022-12-17T08:58:31.608Z,89.73
2022-12-17T08:59:31.611Z,89.73
2022-12-17T09:00:31.584Z,89.73
2022-12-17T09:01:31.680Z,89.73
2022-12-17T09:02:31.734Z,89.64
2022-12-17T09:03:31.601Z,89.73
2022-12-17T09:04:31.538Z,89.17
2022-12-17T09:05:31.525Z,89.17
2022-12-17T09:06:37.363Z,89.07
2022-12-17T09:07:31.520Z,89.54
2022-12-17T09:08:31.490Z,88.88
2022-12-17T09:09:31.517Z,89.83
2022-12-17T09:10:31.480Z,89.73
2022-12-17T09:11:31.460Z,89.83
2022-12-17T09:12:31.457Z,89.64
2022-12-17T09:13:31.447Z,89.73
2022-12-17T09:14:31.446Z,89.36
2022-12-17T09:15:31.425Z,89.36
2022-12-17T09:16:31.525Z,88.98
2022-12-17T09:17:31.397Z,89.36
2022-12-17T09:18:31.396Z,89.26
2022-12-17T09:19:31.372Z,88.88
2022-12-17T09:20:31.380Z,89.36
2022-12-17T09:21:31.387Z,89.17
2022-12-17T09:22:31.355Z,89.17
2022-12-17T09:23:31.348Z,89.92
2022-12-17T09:24:31.315Z,89.36
2022-12-17T09:25:31.310Z,89.26
2022-12-17T09:26:31.289Z,89.36
2022-12-17T09:27:31.299Z,89.64
2022-12-17T09:28:31.289Z,88.98
2022-12-17T09:29:31.265Z,89.64
2022-12-17T09:30:31.306Z,89.83
2022-12-17T09:31:36.998Z,90.01
2022-12-17T09:32:31.227Z,90.39
2022-12-17T09:33:31.238Z,90.20
2022-12-17T09:34:31.209Z,90.01
2022-12-17T09:35:31.204Z,90.01
2022-12-17T09:36:31.187Z,89.73
2022-12-17T09:37:31.179Z,89.54
2022-12-17T09:38:31.176Z,89.73
2022-12-17T09:39:31.180Z,89.73
2022-12-17T09:40:31.147Z,89.73
2022-12-17T09:41:31.128Z,89.73
2022-12-17T09:42:31.130Z,89.64
2022-12-17T09:43:31.112Z,89.64
2022-12-17T09:44:31.110Z,89.73
2022-12-17T09:45:31.092Z,89.92
2022-12-17T09:46:31.133Z,90.11
2022-12-17T09:47:31.075Z,89.64
2022-12-17T09:48:32.721Z,90.01
2022-12-17T09:49:31.041Z,89.54
2022-12-17T09:50:31.041Z,89.64
2022-12-17T09:51:31.022Z,89.54
2022-12-17T09:52:31.003Z,89.64
2022-12-17T09:53:31.030Z,89.64
2022-12-17T09:54:30.991Z,89.73
2022-12-17T09:55:30.982Z,88.88
2022-12-17T09:56:30.971Z,89.45
2022-12-17T09:57:30.955Z,89.45
2022-12-17T09:58:30.950Z,88.88
2022-12-17T09:59:30.940Z,89.17
2022-12-17T10:00:30.933Z,88.22
2022-12-17T10:01:31.011Z,89.17
2022-12-17T10:02:31.107Z,88.79
2022-12-17T10:03:31.015Z,89.07
2022-12-17T10:04:30.889Z,88.88
2022-12-17T10:05:30.864Z,89.07
2022-12-17T10:06:30.848Z,88.69
2022-12-17T10:07:30.848Z,88.41
2022-12-17T10:08:30.881Z,88.12
2022-12-17T10:09:30.832Z,88.22
2022-12-17T10:10:30.808Z,88.50
2022-12-17T10:11:34.585Z,88.22
2022-12-17T10:12:30.784Z,89.07
2022-12-17T10:13:30.783Z,89.36
2022-12-17T10:14:30.768Z,88.88
2022-12-17T10:15:30.845Z,88.98
2022-12-17T10:16:30.757Z,88.79
2022-12-17T10:17:30.731Z,88.79
2022-12-17T10:18:30.726Z,89.36
2022-12-17T10:19:30.718Z,88.79
2022-12-17T10:20:30.702Z,88.98
2022-12-17T10:21:30.686Z,88.98
2022-12-17T10:22:30.680Z,89.07
2022-12-17T10:23:30.664Z,89.17
2022-12-17T10:24:30.664Z,88.98
2022-12-17T10:25:30.653Z,88.79
2022-12-17T10:26:30.633Z,89.45
2022-12-17T10:27:30.629Z,89.07
2022-12-17T10:28:30.610Z,89.07
2022-12-17T10:29:30.603Z,89.83
2022-12-17T10:30:30.597Z,89.73
2022-12-17T10:31:30.632Z,89.73
2022-12-17T10:32:30.568Z,89.83
2022-12-17T10:33:30.562Z,89.54
2022-12-17T10:34:30.545Z,89.07
2022-12-17T10:35:30.541Z,89.45
2022-12-17T10:36:30.525Z,88.79
2022-12-17T10:37:30.517Z,88.88
2022-12-17T10:38:30.500Z,89.17
2022-12-17T10:39:30.496Z,89.26
2022-12-17T10:40:30.476Z,89.07
2022-12-17T10:41:30.474Z,89.17
2022-12-17T10:42:34.513Z,87.74
2022-12-17T10:43:30.459Z,88.31
2022-12-17T10:44:30.457Z,88.03
2022-12-17T10:45:30.438Z,87.37
2022-12-17T10:46:30.518Z,87.84
2022-12-17T10:47:30.436Z,88.22
2022-12-17T10:48:30.403Z,88.41
2022-12-17T10:49:30.391Z,88.69
2022-12-17T10:50:30.385Z,88.98
2022-12-17T10:51:30.393Z,88.88
2022-12-17T10:52:30.356Z,90.20
2022-12-17T10:53:30.360Z,90.39
2022-12-17T10:54:30.354Z,90.77
2022-12-17T10:55:30.319Z,90.96
2022-12-17T10:56:30.309Z,90.86
2022-12-17T10:57:30.295Z,90.58
2022-12-17T10:58:30.282Z,91.05
2022-12-17T10:59:30.275Z,91.53
2022-12-17T11:00:30.288Z,91.34
2022-12-17T11:01:30.339Z,91.24
2022-12-17T11:02:30.449Z,91.24
2022-12-17T11:03:30.306Z,91.05
2022-12-17T11:04:30.224Z,91.05
2022-12-17T11:05:30.219Z,90.96
2022-12-17T11:06:30.200Z,90.77
2022-12-17T11:07:30.180Z,90.68
2022-12-17T11:08:30.171Z,90.96
2022-12-17T11:09:30.165Z,90.39
2022-12-17T11:10:30.214Z,90.01
2022-12-17T11:11:30.158Z,90.30
2022-12-17T11:12:31.085Z,89.92
2022-12-17T11:13:30.128Z,89.92
2022-12-17T11:14:30.108Z,90.30
2022-12-17T11:15:30.095Z,90.20
2022-12-17T11:16:30.178Z,89.83
2022-12-17T11:17:30.077Z,89.36
2022-12-17T11:18:30.101Z,89.64
2022-12-17T11:19:30.068Z,89.45
2022-12-17T11:20:30.053Z,90.01
2022-12-17T11:21:30.047Z,89.83
2022-12-17T11:22:30.025Z,88.79
2022-12-17T11:23:30.002Z,89.54
2022-12-17T11:24:29.994Z,89.36
2022-12-17T11:25:29.992Z,89.45
2022-12-17T11:26:29.967Z,89.64
2022-12-17T11:27:29.975Z,90.20
2022-12-17T11:28:29.948Z,90.30
2022-12-17T11:29:29.944Z,90.11
2022-12-17T11:30:31.092Z,90.11
2022-12-17T11:31:29.972Z,90.30
2022-12-17T11:32:29.903Z,90.11
2022-12-17T11:33:29.891Z,90.20
2022-12-17T11:34:29.879Z,89.83
2022-12-17T11:35:29.944Z,89.83
2022-12-17T11:36:36.829Z,89.83
2022-12-17T11:37:29.858Z,89.17
2022-12-17T11:38:29.843Z,89.26
2022-12-17T11:39:29.857Z,89.36
2022-12-17T11:40:29.841Z,89.17
2022-12-17T11:41:29.807Z,89.54
2022-12-17T11:42:29.851Z,90.01
2022-12-17T11:43:29.789Z,90.77
2022-12-17T11:44:29.772Z,90.96
2022-12-17T11:45:29.802Z,91.24
2022-12-17T11:46:29.825Z,91.34
2022-12-17T11:47:29.735Z,91.34
2022-12-17T11:48:29.716Z,91.05
2022-12-17T11:49:29.714Z,91.15
2022-12-17T11:50:29.707Z,91.34
2022-12-17T11:51:29.690Z,91.05
2022-12-17T11:52:29.685Z,91.43
2022-12-17T11:53:29.682Z,91.20
2022-12-17T11:54:29.681Z,90.77
2022-12-17T11:55:29.772Z,91.05
2022-12-17T11:56:29.638Z,91.43
2022-12-17T11:57:29.713Z,92.19
2022-12-17T11:58:29.682Z,91.53
2022-12-17T11:59:29.614Z,91.91
2022-12-17T12:00:29.617Z,91.43
2022-12-17T12:01:29.614Z,91.62
2022-12-17T12:02:29.711Z,91.81
2022-12-17T12:03:29.729Z,91.72
2022-12-17T12:04:29.619Z,90.86
2022-12-17T12:05:29.593Z,90.86
2022-12-17T12:06:29.554Z,91.05
2022-12-17T12:07:29.550Z,90.58
2022-12-17T12:08:29.551Z,91.34
2022-12-17T12:09:29.500Z,91.34
2022-12-17T12:10:29.482Z,91.24
2022-12-17T12:11:31.738Z,91.43
2022-12-17T12:12:29.455Z,91.24
2022-12-17T12:13:29.456Z,91.15
2022-12-17T12:14:29.470Z,90.68
2022-12-17T12:15:29.465Z,90.68
2022-12-17T12:16:29.489Z,90.96
2022-12-17T12:17:29.427Z,91.34
2022-12-17T12:18:29.391Z,91.15
2022-12-17T12:19:29.424Z,90.86
2022-12-17T12:20:29.390Z,90.96
2022-12-17T12:21:29.382Z,90.58
2022-12-17T12:22:30.899Z,91.24
2022-12-17T12:23:29.345Z,90.96
2022-12-17T12:24:29.331Z,91.24
2022-12-17T12:25:29.329Z,90.96
2022-12-17T12:26:29.360Z,91.15
2022-12-17T12:27:29.329Z,91.05
2022-12-17T12:28:29.288Z,90.68
2022-12-17T12:29:29.313Z,90.96
2022-12-17T12:30:29.315Z,90.20
2022-12-17T12:31:29.289Z,90.39
2022-12-17T12:32:29.268Z,90.01
2022-12-17T12:33:29.243Z,90.01
2022-12-17T12:34:29.211Z,89.92
2022-12-17T12:35:29.235Z,90.11
2022-12-17T12:36:29.189Z,90.20
2022-12-17T12:37:29.196Z,91.05
2022-12-17T12:38:29.196Z,90.96
2022-12-17T12:39:29.150Z,90.20
2022-12-17T12:40:29.135Z,90.30
2022-12-17T12:41:29.126Z,90.39
2022-12-17T12:42:29.134Z,90.20
2022-12-17T12:43:29.117Z,90.30
2022-12-17T12:44:29.111Z,90.30
2022-12-17T12:45:29.128Z,91.05
2022-12-17T12:46:29.083Z,90.49
2022-12-17T12:47:29.071Z,90.49
2022-12-17T12:48:29.067Z,90.20
2022-12-17T12:49:29.032Z,90.49
2022-12-17T12:50:29.031Z,90.39
2022-12-17T12:51:33.742Z,91.05
2022-12-17T12:52:29.005Z,90.39